Time;durP1;ratioP1;P1;durP2;ratioP2;P2;SDS_P1;SDS_P2;PMS_P1;PMS_P2;Temp;Humidity;BMP_temperature;BMP_pressure;BME280_temperature;BME280_humidity;BME280_pressure;Samples;Min_cycle;Max_cycle;Signal;HPM_P1;HPM_P2
2021/09/19 00:01:38;;;;;;;9.43;8.53;;;;;;;;;;5097435;28;20543;-74
2021/09/19 00:04:06;;;;;;;8.60;7.80;;;;;;;;;;5097381;28;20493;-74
2021/09/19 00:06:34;;;;;;;8.57;7.80;;;;;;;;;;5097349;28;20442;-74
2021/09/19 00:09:01;;;;;;;9.13;7.47;;;;;;;;;;5097318;28;20432;-73
2021/09/19 00:11:29;;;;;;;8.93;8.13;;;;;;;;;;5096878;28;20441;-73
2021/09/19 00:13:56;;;;;;;11.33;7.90;;;;;;;;;;5097142;28;20435;-73
2021/09/19 00:16:23;;;;;;;8.40;7.60;;;;;;;;;;5096709;28;20445;-73
2021/09/19 00:18:55;;;;;;;8.77;8.07;;;;;;;;;;5097064;28;20482;-74
2021/09/19 00:21:22;;;;;;;10.80;8.60;;;;;;;;;;5097323;28;20466;-74
2021/09/19 00:23:51;;;;;;;11.27;10.03;;;;;;;;;;5096839;28;20483;-73
2021/09/19 00:26:18;;;;;;;9.40;8.60;;;;;;;;;;5096579;28;20921;-74
2021/09/19 00:28:46;;;;;;;9.83;8.93;;;;;;;;;;5096713;28;20559;-72
2021/09/19 00:31:14;;;;;;;8.57;7.77;;;;;;;;;;5096876;28;20533;-73
2021/09/19 00:33:41;;;;;;;10.03;8.57;;;;;;;;;;5096492;28;20450;-73
2021/09/19 00:36:08;;;;;;;11.30;10.30;;;;;;;;;;5096768;28;20471;-73
2021/09/19 00:38:35;;;;;;;9.47;8.50;;;;;;;;;;5096327;28;20446;-73
2021/09/19 00:41:04;;;;;;;10.60;8.47;;;;;;;;;;5096852;28;20432;-73
2021/09/19 00:43:31;;;;;;;9.67;8.43;;;;;;;;;;5096553;28;20552;-73
2021/09/19 00:45:58;;;;;;;11.17;9.90;;;;;;;;;;5096219;28;21016;-73
2021/09/19 00:48:25;;;;;;;9.83;8.10;;;;;;;;;;5096524;28;20547;-73
2021/09/19 00:50:54;;;;;;;9.40;8.50;;;;;;;;;;5095562;28;20527;-73
2021/09/19 00:53:22;;;;;;;10.83;8.80;;;;;;;;;;5096467;28;20440;-73
2021/09/19 00:55:50;;;;;;;10.20;9.30;;;;;;;;;;5095945;28;20538;-73
2021/09/19 00:58:19;;;;;;;11.50;9.53;;;;;;;;;;5096432;28;20459;-73
2021/09/19 01:00:49;;;;;;;9.87;8.93;;;;;;;;;;5096282;28;20520;-74
2021/09/19 01:03:16;;;;;;;11.57;10.33;;;;;;;;;;5095707;28;20480;-74
2021/09/19 01:05:44;;;;;;;10.30;9.33;;;;;;;;;;5095570;28;20443;-74
2021/09/19 01:08:18;;;;;;;9.00;8.20;;;;;;;;;;5095846;28;20538;-73
2021/09/19 01:10:45;;;;;;;9.67;8.70;;;;;;;;;;5096567;28;20431;-73
2021/09/19 01:13:13;;;;;;;12.60;9.10;;;;;;;;;;5095993;28;20522;-73
2021/09/19 01:15:42;;;;;;;9.80;8.80;;;;;;;;;;5096160;28;20444;-73
2021/09/19 01:18:10;;;;;;;9.53;8.67;;;;;;;;;;5095773;28;20440;-73
2021/09/19 01:20:37;;;;;;;9.37;7.83;;;;;;;;;;5095492;28;20527;-73
2021/09/19 01:23:05;;;;;;;8.10;7.40;;;;;;;;;;5096156;28;20485;-73
2021/09/19 01:25:34;;;;;;;9.87;8.97;;;;;;;;;;5095350;28;20435;-73
2021/09/19 01:28:02;;;;;;;10.17;8.40;;;;;;;;;;5095772;28;20984;-75
2021/09/19 01:30:30;;;;;;;9.60;8.57;;;;;;;;;;5095346;28;20452;-74
2021/09/19 01:32:57;;;;;;;8.27;7.13;;;;;;;;;;5095618;28;20444;-73
2021/09/19 01:35:24;;;;;;;8.07;7.33;;;;;;;;;;5095647;28;20447;-74
2021/09/19 01:37:51;;;;;;;7.50;6.80;;;;;;;;;;5095626;28;20745;-74
2021/09/19 01:40:19;;;;;;;7.90;7.10;;;;;;;;;;5095523;28;20435;-73
2021/09/19 01:42:47;;;;;;;8.87;8.10;;;;;;;;;;5095533;28;20824;-74
2021/09/19 01:45:14;;;;;;;8.33;7.63;;;;;;;;;;5095306;28;20435;-74
2021/09/19 01:47:41;;;;;;;9.60;7.80;;;;;;;;;;5095578;28;20522;-73
2021/09/19 01:50:09;;;;;;;8.37;7.57;;;;;;;;;;5095218;28;20442;-74
2021/09/19 01:52:36;;;;;;;9.00;6.63;;;;;;;;;;5095118;28;20451;-73
2021/09/19 01:55:04;;;;;;;8.60;7.47;;;;;;;;;;5094795;28;20444;-73
2021/09/19 01:57:32;;;;;;;7.53;6.83;;;;;;;;;;5095000;28;20439;-73
2021/09/19 02:00:00;;;;;;;8.40;7.60;;;;;;;;;;5094699;28;20439;-73
2021/09/19 02:02:27;;;;;;;8.33;7.43;;;;;;;;;;5094210;28;20629;-73
2021/09/19 02:04:55;;;;;;;6.97;6.33;;;;;;;;;;5094945;28;20447;-74
2021/09/19 02:07:22;;;;;;;7.07;6.57;;;;;;;;;;5094652;28;20610;-73
2021/09/19 02:09:50;;;;;;;7.40;6.70;;;;;;;;;;5094956;28;20435;-73
2021/09/19 02:12:17;;;;;;;6.77;6.20;;;;;;;;;;5095188;28;20440;-73
2021/09/19 02:14:44;;;;;;;7.37;6.77;;;;;;;;;;5094417;28;20443;-73
2021/09/19 02:17:13;;;;;;;11.43;6.67;;;;;;;;;;5094692;28;20778;-73
2021/09/19 02:19:41;;;;;;;7.27;6.57;;;;;;;;;;5094616;28;20451;-73
2021/09/19 02:22:08;;;;;;;10.43;7.63;;;;;;;;;;5094841;28;20440;-73
2021/09/19 02:24:36;;;;;;;8.33;6.67;;;;;;;;;;5094707;28;20484;-73
2021/09/19 02:27:03;;;;;;;7.23;6.23;;;;;;;;;;5094487;28;20459;-73
2021/09/19 02:29:30;;;;;;;8.40;6.43;;;;;;;;;;5094413;28;20470;-73
2021/09/19 02:31:57;;;;;;;6.50;6.00;;;;;;;;;;5094319;28;20932;-73
2021/09/19 02:34:26;;;;;;;6.47;5.87;;;;;;;;;;5094352;28;20438;-73
2021/09/19 02:36:53;;;;;;;7.13;6.40;;;;;;;;;;5094792;28;20493;-73
2021/09/19 02:39:21;;;;;;;6.13;5.20;;;;;;;;;;5094546;28;20436;-73
2021/09/19 02:41:48;;;;;;;6.50;5.97;;;;;;;;;;5093983;28;20893;-73
2021/09/19 02:44:15;;;;;;;8.50;6.87;;;;;;;;;;5094179;28;20486;-73
2021/09/19 02:46:42;;;;;;;7.47;5.83;;;;;;;;;;5094519;28;20447;-73
2021/09/19 02:49:10;;;;;;;6.57;5.97;;;;;;;;;;5094111;28;20440;-73
2021/09/19 02:51:39;;;;;;;6.60;6.00;;;;;;;;;;5094969;28;20519;-73
2021/09/19 02:54:06;;;;;;;5.93;5.53;;;;;;;;;;5093780;28;20454;-73
2021/09/19 02:56:34;;;;;;;6.10;5.60;;;;;;;;;;5094278;28;20441;-74
2021/09/19 02:59:01;;;;;;;7.10;6.20;;;;;;;;;;5094064;28;20448;-73
2021/09/19 03:01:28;;;;;;;5.50;5.10;;;;;;;;;;5093971;28;20468;-73
2021/09/19 03:03:55;;;;;;;6.47;5.90;;;;;;;;;;5094038;28;20486;-73
2021/09/19 03:06:25;;;;;;;6.30;5.80;;;;;;;;;;5093807;28;20440;-73
2021/09/19 03:08:53;;;;;;;6.37;5.50;;;;;;;;;;5093846;28;20964;-74
2021/09/19 03:11:20;;;;;;;10.70;6.33;;;;;;;;;;5093653;28;20446;-75
2021/09/19 03:13:48;;;;;;;6.60;5.83;;;;;;;;;;5093278;28;20447;-74
2021/09/19 03:16:15;;;;;;;6.20;5.60;;;;;;;;;;5093708;28;20531;-74
2021/09/19 03:18:42;;;;;;;5.87;5.20;;;;;;;;;;5093348;28;20471;-73
2021/09/19 03:21:09;;;;;;;6.00;5.40;;;;;;;;;;5094032;28;20491;-73
2021/09/19 03:23:36;;;;;;;7.73;5.77;;;;;;;;;;5093130;28;20479;-74
2021/09/19 03:26:05;;;;;;;6.60;5.97;;;;;;;;;;5093232;28;20440;-73
2021/09/19 03:28:33;;;;;;;6.37;5.03;;;;;;;;;;5093018;28;20467;-75
2021/09/19 03:31:00;;;;;;;7.10;4.90;;;;;;;;;;5093096;28;20498;-75
2021/09/19 03:33:28;;;;;;;6.10;5.60;;;;;;;;;;5093380;28;20460;-74
2021/09/19 03:35:55;;;;;;;7.03;6.23;;;;;;;;;;5093478;28;20518;-75
2021/09/19 03:38:22;;;;;;;6.90;6.20;;;;;;;;;;5093462;28;20463;-74
2021/09/19 03:40:49;;;;;;;7.37;5.40;;;;;;;;;;5093615;28;20436;-74
2021/09/19 03:43:18;;;;;;;6.67;4.93;;;;;;;;;;5093254;28;20471;-73
2021/09/19 03:45:45;;;;;;;7.77;5.50;;;;;;;;;;5093708;28;20444;-73
2021/09/19 03:48:12;;;;;;;5.80;5.20;;;;;;;;;;5093313;28;20446;-74
2021/09/19 03:50:40;;;;;;;6.10;5.60;;;;;;;;;;5093286;28;20791;-74
2021/09/19 03:53:07;;;;;;;5.60;5.20;;;;;;;;;;5093324;28;20523;-74
2021/09/19 03:55:34;;;;;;;6.60;5.90;;;;;;;;;;5093337;28;20440;-74
2021/09/19 03:58:02;;;;;;;9.10;5.50;;;;;;;;;;5093142;28;20454;-74
2021/09/19 04:00:30;;;;;;;6.50;5.67;;;;;;;;;;5093641;28;20439;-74
2021/09/19 04:02:58;;;;;;;6.70;5.60;;;;;;;;;;5093995;28;20446;-75
2021/09/19 04:05:25;;;;;;;7.83;5.27;;;;;;;;;;5093313;28;20439;-74
2021/09/19 04:07:52;;;;;;;6.17;5.47;;;;;;;;;;5092990;28;20440;-74
2021/09/19 04:10:20;;;;;;;5.63;5.23;;;;;;;;;;5092969;28;20441;-73
2021/09/19 04:12:47;;;;;;;5.20;4.80;;;;;;;;;;5093579;28;20441;-74
2021/09/19 04:15:14;;;;;;;5.27;4.77;;;;;;;;;;5092867;28;20440;-73
2021/09/19 04:17:43;;;;;;;5.37;4.87;;;;;;;;;;5092839;28;20444;-74
2021/09/19 04:20:11;;;;;;;7.03;5.13;;;;;;;;;;5093218;28;20766;-74
2021/09/19 04:22:38;;;;;;;5.23;4.83;;;;;;;;;;5093130;28;20797;-74
2021/09/19 04:25:08;;;;;;;6.40;5.83;;;;;;;;;;5092760;28;20832;-73
2021/09/19 04:27:36;;;;;;;7.23;4.97;;;;;;;;;;5097297;28;20449;-73
2021/09/19 04:30:04;;;;;;;5.57;5.10;;;;;;;;;;5097361;28;20446;-73
2021/09/19 04:32:32;;;;;;;5.27;4.87;;;;;;;;;;5097395;28;20453;-74
2021/09/19 04:35:00;;;;;;;5.47;5.07;;;;;;;;;;5097124;28;20436;-75
2021/09/19 04:37:27;;;;;;;5.53;4.87;;;;;;;;;;5096636;28;20937;-74
2021/09/19 04:39:54;;;;;;;4.90;4.43;;;;;;;;;;5096721;28;20431;-72
2021/09/19 04:42:22;;;;;;;6.90;5.23;;;;;;;;;;5096430;28;20451;-71
2021/09/19 04:44:50;;;;;;;6.57;5.17;;;;;;;;;;5096267;28;21039;-71
2021/09/19 04:47:17;;;;;;;6.97;4.77;;;;;;;;;;5096945;28;20444;-71
2021/09/19 04:49:44;;;;;;;5.13;4.60;;;;;;;;;;5096272;28;20455;-70
2021/09/19 04:52:13;;;;;;;5.27;4.77;;;;;;;;;;5095480;28;20917;-69
2021/09/19 04:54:40;;;;;;;5.37;4.87;;;;;;;;;;5095807;28;20450;-70
2021/09/19 04:57:07;;;;;;;6.63;5.93;;;;;;;;;;5095593;28;20933;-69
2021/09/19 04:59:35;;;;;;;5.50;4.90;;;;;;;;;;5096355;28;20556;-70
2021/09/19 05:02:02;;;;;;;5.30;4.80;;;;;;;;;;5096053;28;20782;-71
2021/09/19 05:04:30;;;;;;;9.33;4.90;;;;;;;;;;5095817;28;20570;-71
2021/09/19 05:06:57;;;;;;;6.20;4.40;;;;;;;;;;5096081;28;20437;-70
2021/09/19 05:09:25;;;;;;;5.30;4.80;;;;;;;;;;5096092;28;20440;-70
2021/09/19 05:11:52;;;;;;;5.80;5.30;;;;;;;;;;5095811;28;20436;-70
2021/09/19 05:14:20;;;;;;;5.80;4.70;;;;;;;;;;5096136;28;20447;-70
2021/09/19 05:16:47;;;;;;;5.20;4.70;;;;;;;;;;5095781;28;20544;-70
2021/09/19 05:19:14;;;;;;;5.50;5.00;;;;;;;;;;5095700;28;20528;-70
2021/09/19 05:21:41;;;;;;;5.53;4.93;;;;;;;;;;5095429;28;20442;-70
2021/09/19 05:24:09;;;;;;;5.53;4.90;;;;;;;;;;5095887;28;20477;-70
2021/09/19 05:26:37;;;;;;;5.23;4.73;;;;;;;;;;5095879;28;20522;-70
2021/09/19 05:29:05;;;;;;;5.57;5.07;;;;;;;;;;5095484;28;20487;-70
2021/09/19 05:31:32;;;;;;;4.70;4.30;;;;;;;;;;5095497;28;20445;-70
2021/09/19 05:34:01;;;;;;;7.63;5.30;;;;;;;;;;5095534;28;20894;-70
2021/09/19 05:36:28;;;;;;;4.57;4.17;;;;;;;;;;5095391;28;20444;-70
2021/09/19 05:38:55;;;;;;;5.17;4.63;;;;;;;;;;5094310;28;20939;-70
2021/09/19 05:41:23;;;;;;;5.37;4.87;;;;;;;;;;5095115;28;20449;-70
2021/09/19 05:43:51;;;;;;;5.30;4.80;;;;;;;;;;5095419;28;20767;-70
2021/09/19 05:46:18;;;;;;;5.47;5.07;;;;;;;;;;5095126;28;20447;-70
2021/09/19 05:48:46;;;;;;;5.80;4.57;;;;;;;;;;5095083;28;20457;-70
2021/09/19 05:51:13;;;;;;;6.70;5.13;;;;;;;;;;5095646;28;20880;-70
2021/09/19 05:53:40;;;;;;;5.30;4.73;;;;;;;;;;5095242;28;20938;-69
2021/09/19 05:56:07;;;;;;;6.07;5.17;;;;;;;;;;5095615;28;20467;-70
2021/09/19 05:58:35;;;;;;;5.30;4.90;;;;;;;;;;5095312;28;20455;-71
2021/09/19 06:01:03;;;;;;;5.10;4.70;;;;;;;;;;5095458;28;20444;-70
2021/09/19 06:03:31;;;;;;;4.60;4.20;;;;;;;;;;5094774;28;20444;-70
2021/09/19 06:05:58;;;;;;;6.37;4.80;;;;;;;;;;5094683;28;20479;-70
2021/09/19 06:08:25;;;;;;;5.27;4.80;;;;;;;;;;5094844;28;20445;-71
2021/09/19 06:10:52;;;;;;;4.50;4.10;;;;;;;;;;5095756;28;20444;-70
2021/09/19 06:13:20;;;;;;;6.53;4.47;;;;;;;;;;5094626;28;20996;-70
2021/09/19 06:15:47;;;;;;;5.13;4.70;;;;;;;;;;5095053;28;20461;-70
2021/09/19 06:18:15;;;;;;;4.60;4.20;;;;;;;;;;5094868;28;20437;-70
2021/09/19 06:20:42;;;;;;;5.20;4.70;;;;;;;;;;5093483;28;20445;-69
2021/09/19 06:23:10;;;;;;;5.27;4.77;;;;;;;;;;5075763;28;20461;-70
2021/09/19 06:25:37;;;;;;;6.80;5.27;;;;;;;;;;5074599;28;20826;-70
2021/09/19 06:28:04;;;;;;;6.50;4.50;;;;;;;;;;5073938;28;20481;-70
2021/09/19 06:30:31;;;;;;;4.90;4.40;;;;;;;;;;5073965;28;20443;-70
2021/09/19 06:32:59;;;;;;;4.90;4.47;;;;;;;;;;5074215;28;20794;-70
2021/09/19 06:35:27;;;;;;;4.83;4.40;;;;;;;;;;5074235;28;20456;-70
2021/09/19 06:37:54;;;;;;;5.40;4.90;;;;;;;;;;5073890;28;20528;-70
2021/09/19 06:40:22;;;;;;;5.30;4.90;;;;;;;;;;5074130;28;20529;-72
2021/09/19 06:42:49;;;;;;;6.40;4.53;;;;;;;;;;5073950;28;20545;-70
2021/09/19 06:45:16;;;;;;;4.60;4.20;;;;;;;;;;5073670;28;20482;-70
2021/09/19 06:47:45;;;;;;;5.30;4.80;;;;;;;;;;5073524;28;20538;-69
2021/09/19 06:50:13;;;;;;;6.47;4.10;;;;;;;;;;5073501;28;20529;-71
2021/09/19 06:52:41;;;;;;;5.67;5.10;;;;;;;;;;5073826;28;20451;-70
2021/09/19 06:55:09;;;;;;;4.80;4.40;;;;;;;;;;5073859;28;20477;-70
2021/09/19 06:57:36;;;;;;;5.03;4.50;;;;;;;;;;5073781;28;20453;-70
2021/09/19 07:00:05;;;;;;;8.87;5.27;;;;;;;;;;5073565;28;20440;-70
2021/09/19 07:02:32;;;;;;;8.20;5.07;;;;;;;;;;5073277;28;20441;-70
2021/09/19 07:04:59;;;;;;;5.20;4.70;;;;;;;;;;5073345;28;20992;-72
2021/09/19 07:07:26;;;;;;;5.13;4.73;;;;;;;;;;5073364;28;20438;-70
2021/09/19 07:09:55;;;;;;;5.20;4.70;;;;;;;;;;5074327;28;20528;-70
2021/09/19 07:12:22;;;;;;;5.50;4.93;;;;;;;;;;5073305;28;21021;-70
2021/09/19 07:14:49;;;;;;;6.47;5.03;;;;;;;;;;5073893;28;20452;-69
2021/09/19 07:17:17;;;;;;;5.40;4.90;;;;;;;;;;5073680;28;20445;-70
2021/09/19 07:19:44;;;;;;;7.40;4.83;;;;;;;;;;5073298;28;21043;-70
2021/09/19 07:22:11;;;;;;;5.13;4.70;;;;;;;;;;5073604;28;20437;-70
2021/09/19 07:24:39;;;;;;;6.27;5.40;;;;;;;;;;5073211;28;20507;-70
2021/09/19 07:27:08;;;;;;;6.23;5.43;;;;;;;;;;5073502;28;20456;-70
2021/09/19 07:29:36;;;;;;;5.97;5.07;;;;;;;;;;5073528;28;21010;-70
2021/09/19 07:32:07;;;;;;;5.00;4.50;;;;;;;;;;5073504;28;20449;-70
2021/09/19 07:34:34;;;;;;;5.87;5.00;;;;;;;;;;5073757;28;20793;-70
2021/09/19 07:37:02;;;;;;;5.27;4.77;;;;;;;;;;5073196;28;20779;-70
2021/09/19 07:39:29;;;;;;;5.10;4.60;;;;;;;;;;5073413;28;20449;-70
2021/09/19 07:41:56;;;;;;;6.00;5.40;;;;;;;;;;5073689;28;20433;-70
2021/09/19 07:44:25;;;;;;;6.27;4.20;;;;;;;;;;5072992;28;20947;-70
2021/09/19 07:46:53;;;;;;;5.77;4.80;;;;;;;;;;5073028;28;20538;-70
2021/09/19 07:49:21;;;;;;;6.17;5.20;;;;;;;;;;5073726;28;20441;-70
2021/09/19 07:51:49;;;;;;;5.80;5.30;;;;;;;;;;5073014;28;20448;-70
2021/09/19 07:54:18;;;;;;;6.40;5.50;;;;;;;;;;5073286;28;20432;-71
2021/09/19 07:56:46;;;;;;;5.47;4.90;;;;;;;;;;5073243;28;20448;-71
2021/09/19 07:59:13;;;;;;;6.43;5.60;;;;;;;;;;5073433;28;20801;-71
2021/09/19 08:01:42;;;;;;;5.83;5.23;;;;;;;;;;5075510;28;20442;-70
2021/09/19 08:04:09;;;;;;;6.47;5.80;;;;;;;;;;5076868;28;20441;-70
2021/09/19 08:06:36;;;;;;;5.60;5.20;;;;;;;;;;5077614;28;20481;-70
2021/09/19 08:09:04;;;;;;;8.90;5.90;;;;;;;;;;5076747;28;20442;-70
2021/09/19 08:11:31;;;;;;;5.50;4.93;;;;;;;;;;5077054;28;20535;-72
2021/09/19 08:14:05;;;;;;;5.87;5.27;;;;;;;;;;5076746;28;20449;-70
2021/09/19 08:16:32;;;;;;;5.87;5.27;;;;;;;;;;5076704;28;20479;-69
2021/09/19 08:19:01;;;;;;;5.37;4.83;;;;;;;;;;5076886;28;20452;-71
2021/09/19 08:21:28;;;;;;;6.27;5.60;;;;;;;;;;5076526;28;20547;-71
2021/09/19 08:23:56;;;;;;;6.97;5.40;;;;;;;;;;5076740;28;20437;-70
2021/09/19 08:26:23;;;;;;;6.83;6.20;;;;;;;;;;5076362;28;20555;-70
2021/09/19 08:28:51;;;;;;;7.43;4.90;;;;;;;;;;5076579;28;20568;-70
2021/09/19 08:31:18;;;;;;;8.80;5.67;;;;;;;;;;5076586;28;20445;-69
2021/09/19 08:33:46;;;;;;;6.60;5.80;;;;;;;;;;5076230;28;20529;-69
2021/09/19 08:36:14;;;;;;;6.10;5.50;;;;;;;;;;5076050;28;20440;-69
2021/09/19 08:38:42;;;;;;;6.37;5.77;;;;;;;;;;5088996;28;20527;-70
2021/09/19 08:41:09;;;;;;;6.20;5.60;;;;;;;;;;5096442;28;20494;-71
2021/09/19 08:43:36;;;;;;;6.90;5.67;;;;;;;;;;5096514;28;20519;-72
2021/09/19 08:46:03;;;;;;;6.20;5.27;;;;;;;;;;5096360;28;20467;-71
2021/09/19 08:48:32;;;;;;;6.00;5.47;;;;;;;;;;5096702;28;20522;-70
2021/09/19 08:50:59;;;;;;;5.93;5.30;;;;;;;;;;5096617;28;20459;-70
2021/09/19 08:53:28;;;;;;;5.90;5.20;;;;;;;;;;5096834;28;20545;-70
2021/09/19 08:55:56;;;;;;;8.20;5.23;;;;;;;;;;5096850;28;20440;-70
2021/09/19 08:58:23;;;;;;;8.90;4.93;;;;;;;;;;5096666;28;20450;-70
2021/09/19 09:00:50;;;;;;;12.70;4.87;;;;;;;;;;5095770;28;20447;-69
2021/09/19 09:03:19;;;;;;;7.97;5.20;;;;;;;;;;5095723;28;20435;-69
2021/09/19 09:05:53;;;;;;;5.30;4.90;;;;;;;;;;5079102;28;20573;-69
2021/09/19 09:08:21;;;;;;;6.20;5.60;;;;;;;;;;5075781;28;20466;-70
2021/09/19 09:10:50;;;;;;;6.70;4.77;;;;;;;;;;5075988;28;20454;-69
2021/09/19 09:13:18;;;;;;;5.93;4.60;;;;;;;;;;5075255;28;20447;-69
2021/09/19 09:15:46;;;;;;;5.00;4.50;;;;;;;;;;5075446;28;20449;-70
2021/09/19 09:18:14;;;;;;;4.60;4.20;;;;;;;;;;5075670;28;20450;-71
2021/09/19 09:20:55;;;;;;;6.03;5.53;;;;;;;;;;5075653;28;20528;-71
2021/09/19 09:23:27;;;;;;;4.60;4.20;;;;;;;;;;5075326;28;20441;-70
2021/09/19 09:26:24;;;;;;;7.77;4.93;;;;;;;;;;5075625;28;20480;-70
2021/09/19 09:28:54;;;;;;;4.40;4.03;;;;;;;;;;5013467;28;20569;-69
2021/09/19 09:31:32;;;;;;;4.63;4.20;;;;;;;;;;5062452;28;20458;-69
2021/09/19 09:34:01;;;;;;;4.60;4.20;;;;;;;;;;5075180;28;20456;-70
2021/09/19 09:36:32;;;;;;;4.60;4.20;;;;;;;;;;5075499;28;20467;-70
2021/09/19 09:38:59;;;;;;;4.63;4.23;;;;;;;;;;5075423;28;20443;-69
2021/09/19 09:41:38;;;;;;;5.40;4.90;;;;;;;;;;5074772;28;20441;-68
2021/09/19 09:44:24;;;;;;;4.67;4.13;;;;;;;;;;5075303;28;20436;-70
2021/09/19 09:46:52;;;;;;;5.10;4.60;;;;;;;;;;5075259;28;20476;-71
2021/09/19 09:49:21;;;;;;;4.50;4.13;;;;;;;;;;5075232;28;20440;-70
2021/09/19 09:51:49;;;;;;;4.40;4.00;;;;;;;;;;5074415;28;20459;-70
2021/09/19 09:54:16;;;;;;;4.00;3.70;;;;;;;;;;5074621;28;20525;-71
2021/09/19 09:56:44;;;;;;;3.90;3.70;;;;;;;;;;5075056;28;20536;-70
2021/09/19 09:59:13;;;;;;;9.17;4.00;;;;;;;;;;5074953;28;20504;-70
2021/09/19 10:01:41;;;;;;;3.93;3.63;;;;;;;;;;5074511;28;20808;-70
2021/09/19 10:04:09;;;;;;;6.07;3.97;;;;;;;;;;5074317;28;20529;-70
2021/09/19 10:06:36;;;;;;;3.93;3.63;;;;;;;;;;5074429;28;20481;-69
2021/09/19 10:09:04;;;;;;;5.00;4.50;;;;;;;;;;5075202;28;20473;-70
2021/09/19 10:11:31;;;;;;;5.90;4.27;;;;;;;;;;5074763;28;20441;-70
2021/09/19 10:13:58;;;;;;;7.57;3.70;;;;;;;;;;5074417;28;20444;-70
2021/09/19 10:16:27;;;;;;;3.37;3.17;;;;;;;;;;5074606;28;20449;-70
2021/09/19 10:18:54;;;;;;;5.10;3.90;;;;;;;;;;5074292;28;20448;-69
2021/09/19 10:21:26;;;;;;;3.70;3.40;;;;;;;;;;5074310;28;20439;-70
2021/09/19 10:23:55;;;;;;;3.93;3.60;;;;;;;;;;5073603;28;20459;-70
2021/09/19 10:26:23;;;;;;;3.93;3.63;;;;;;;;;;5074417;28;20922;-69
2021/09/19 10:28:53;;;;;;;3.80;3.50;;;;;;;;;;5074626;28;20486;-70
2021/09/19 10:31:22;;;;;;;5.23;4.50;;;;;;;;;;5074372;28;20820;-70
2021/09/19 10:33:57;;;;;;;3.80;3.47;;;;;;;;;;5073915;28;20453;-70
2021/09/19 10:36:27;;;;;;;6.43;3.20;;;;;;;;;;5074626;28;20915;-70
2021/09/19 10:38:54;;;;;;;5.00;3.30;;;;;;;;;;5074386;28;20875;-70
2021/09/19 10:41:23;;;;;;;3.33;3.13;;;;;;;;;;5073923;28;20999;-70
2021/09/19 10:43:51;;;;;;;4.73;3.23;;;;;;;;;;5073777;28;20820;-70
2021/09/19 10:46:39;;;;;;;3.30;3.00;;;;;;;;;;5074048;28;20949;-70
2021/09/19 10:49:13;;;;;;;4.47;3.33;;;;;;;;;;5073775;28;20480;-70
2021/09/19 10:51:59;;;;;;;3.70;3.10;;;;;;;;;;5074251;28;20446;-70
2021/09/19 10:54:41;;;;;;;2.90;2.70;;;;;;;;;;5074334;28;20526;-70
2021/09/19 10:57:14;;;;;;;3.40;3.13;;;;;;;;;;5073922;28;20528;-70
2021/09/19 10:59:57;;;;;;;6.87;3.10;;;;;;;;;;5074095;28;20426;-70
2021/09/19 11:02:30;;;;;;;3.90;3.23;;;;;;;;;;5073452;28;20480;-70
2021/09/19 11:05:12;;;;;;;3.80;3.17;;;;;;;;;;5073468;28;20501;-71
2021/09/19 11:07:42;;;;;;;4.10;3.40;;;;;;;;;;5073547;28;20556;-70
2021/09/19 11:10:09;;;;;;;3.30;3.00;;;;;;;;;;5073494;28;20940;-70
2021/09/19 11:12:42;;;;;;;4.73;3.17;;;;;;;;;;5073349;28;20928;-70
2021/09/19 11:15:10;;;;;;;3.30;3.03;;;;;;;;;;5073271;28;20435;-70
2021/09/19 11:17:44;;;;;;;3.77;3.07;;;;;;;;;;5073895;28;20444;-70
2021/09/19 11:20:25;;;;;;;2.80;2.60;;;;;;;;;;5073772;28;20455;-70
2021/09/19 11:22:57;;;;;;;3.60;3.10;;;;;;;;;;5073597;28;20441;-70
2021/09/19 11:25:24;;;;;;;2.97;2.67;;;;;;;;;;5073638;28;20487;-70
2021/09/19 11:27:53;;;;;;;5.20;3.03;;;;;;;;;;5073431;28;20469;-70
2021/09/19 11:30:24;;;;;;;3.80;3.50;;;;;;;;;;5074211;28;20422;-70
2021/09/19 11:32:51;;;;;;;5.80;3.30;;;;;;;;;;5073169;28;20468;-70
2021/09/19 11:35:18;;;;;;;3.87;3.53;;;;;;;;;;5073800;28;20526;-70
2021/09/19 11:37:45;;;;;;;4.30;3.70;;;;;;;;;;5074137;28;20452;-70
2021/09/19 11:40:23;;;;;;;3.80;3.30;;;;;;;;;;5073853;28;20538;-70
2021/09/19 11:42:53;;;;;;;4.50;3.67;;;;;;;;;;5073548;28;20429;-70
2021/09/19 11:45:26;;;;;;;3.20;3.00;;;;;;;;;;5073908;28;20794;-70
2021/09/19 11:47:54;;;;;;;3.90;3.60;;;;;;;;;;5073501;28;20815;-69
2021/09/19 11:50:24;;;;;;;3.90;3.53;;;;;;;;;;5073320;28;20532;-70
2021/09/19 11:52:52;;;;;;;3.00;2.80;;;;;;;;;;5073273;28;20445;-70
2021/09/19 11:55:22;;;;;;;4.60;3.70;;;;;;;;;;5073251;28;20501;-70
2021/09/19 11:57:49;;;;;;;7.77;6.80;;;;;;;;;;5073023;28;21004;-70
2021/09/19 12:00:16;;;;;;;3.83;3.53;;;;;;;;;;5073207;28;20450;-70
2021/09/19 12:02:46;;;;;;;4.33;3.93;;;;;;;;;;5072795;28;20445;-70
2021/09/19 12:05:16;;;;;;;3.70;3.30;;;;;;;;;;5073302;28;20932;-70
2021/09/19 12:07:43;;;;;;;4.63;4.13;;;;;;;;;;5072675;28;20569;-70
2021/09/19 12:10:11;;;;;;;3.23;3.03;;;;;;;;;;5072729;28;20988;-71
2021/09/19 12:12:40;;;;;;;3.60;3.20;;;;;;;;;;5073243;28;20442;-71
2021/09/19 12:15:07;;;;;;;3.70;3.40;;;;;;;;;;5073240;28;20529;-72
2021/09/19 12:17:37;;;;;;;3.60;3.30;;;;;;;;;;5071957;28;20449;-70
2021/09/19 12:20:07;;;;;;;4.30;3.60;;;;;;;;;;5072542;28;20447;-72
2021/09/19 12:22:35;;;;;;;5.33;3.60;;;;;;;;;;5073038;28;20434;-72
2021/09/19 12:25:03;;;;;;;5.87;3.27;;;;;;;;;;5072214;28;21006;-72
2021/09/19 12:27:31;;;;;;;6.70;4.00;;;;;;;;;;5072066;28;21016;-71
2021/09/19 12:30:01;;;;;;;4.43;3.80;;;;;;;;;;5072475;28;20596;-71
2021/09/19 12:32:35;;;;;;;6.90;3.80;;;;;;;;;;5073099;28;20431;-71
2021/09/19 12:35:03;;;;;;;6.70;4.00;;;;;;;;;;5072436;28;20475;-71
2021/09/19 12:37:34;;;;;;;4.20;3.80;;;;;;;;;;5072739;28;20451;-70
2021/09/19 12:40:04;;;;;;;3.90;3.60;;;;;;;;;;5072482;28;20983;-71
2021/09/19 12:42:31;;;;;;;3.83;3.40;;;;;;;;;;5072679;28;20792;-70
2021/09/19 12:44:58;;;;;;;4.17;3.73;;;;;;;;;;5072729;28;20537;-71
2021/09/19 12:47:30;;;;;;;3.97;3.43;;;;;;;;;;5074292;28;20483;-71
2021/09/19 12:49:57;;;;;;;5.63;3.27;;;;;;;;;;5075676;28;20969;-72
2021/09/19 12:52:31;;;;;;;4.60;3.42;;;;;;;;;;5075494;28;20517;-69
2021/09/19 12:54:59;;;;;;;6.80;3.97;;;;;;;;;;5076662;28;20184;-70
2021/09/19 12:57:27;;;;;;;5.17;4.77;;;;;;;;;;5076026;28;20440;-69
2021/09/19 12:59:55;;;;;;;4.67;4.07;;;;;;;;;;5076158;28;20537;-71
2021/09/19 13:02:23;;;;;;;3.90;3.40;;;;;;;;;;5075750;28;20451;-71
2021/09/19 13:04:52;;;;;;;5.57;3.30;;;;;;;;;;5075984;28;20539;-78
2021/09/19 13:07:19;;;;;;;5.50;4.53;;;;;;;;;;5076042;28;20481;-74
2021/09/19 13:09:47;;;;;;;7.63;4.53;;;;;;;;;;5076700;28;20518;-71
2021/09/19 13:12:14;;;;;;;4.10;3.80;;;;;;;;;;5075616;28;20437;-70
2021/09/19 13:14:41;;;;;;;3.90;3.37;;;;;;;;;;5075916;28;20530;-70
2021/09/19 13:17:09;;;;;;;3.83;3.53;;;;;;;;;;5075878;28;20451;-70
2021/09/19 13:19:36;;;;;;;4.77;3.90;;;;;;;;;;5075885;28;20437;-70
2021/09/19 13:22:06;;;;;;;6.17;5.33;;;;;;;;;;5075500;28;20932;-70
2021/09/19 13:24:33;;;;;;;4.87;4.37;;;;;;;;;;5075783;28;20454;-70
2021/09/19 13:27:01;;;;;;;4.50;4.00;;;;;;;;;;5075689;28;20537;-70
2021/09/19 13:29:30;;;;;;;7.07;5.23;;;;;;;;;;5075698;28;20477;-70
2021/09/19 13:31:57;;;;;;;4.57;4.17;;;;;;;;;;5075744;28;20527;-70
2021/09/19 13:34:24;;;;;;;4.80;4.30;;;;;;;;;;5075533;28;20437;-70
2021/09/19 13:36:53;;;;;;;4.90;4.40;;;;;;;;;;5075229;28;20456;-70
2021/09/19 13:39:22;;;;;;;5.03;4.30;;;;;;;;;;5075097;28;20459;-70
2021/09/19 13:41:49;;;;;;;6.40;5.33;;;;;;;;;;5075152;28;20445;-70
2021/09/19 13:44:16;;;;;;;4.80;4.30;;;;;;;;;;5075082;28;20445;-70
2021/09/19 13:46:44;;;;;;;5.90;4.27;;;;;;;;;;5075288;28;20923;-70
2021/09/19 13:49:12;;;;;;;5.00;3.83;;;;;;;;;;5075956;28;20447;-70
2021/09/19 13:51:39;;;;;;;4.20;3.80;;;;;;;;;;5075399;28;20452;-70
2021/09/19 13:54:07;;;;;;;4.87;4.30;;;;;;;;;;5075550;28;20794;-71
2021/09/19 13:56:36;;;;;;;21.03;5.27;;;;;;;;;;5075297;28;20498;-70
2021/09/19 13:59:03;;;;;;;4.87;4.43;;;;;;;;;;5074478;28;20492;-70
2021/09/19 14:01:31;;;;;;;5.33;4.10;;;;;;;;;;5074699;28;20444;-70
2021/09/19 14:03:58;;;;;;;5.07;4.57;;;;;;;;;;5074711;28;20887;-70
2021/09/19 14:06:25;;;;;;;4.87;4.37;;;;;;;;;;5075221;28;20520;-70
2021/09/19 14:08:52;;;;;;;4.93;4.43;;;;;;;;;;5074553;28;20568;-70
2021/09/19 14:11:20;;;;;;;6.27;4.07;;;;;;;;;;5075393;28;20437;-70
2021/09/19 14:13:48;;;;;;;4.80;4.10;;;;;;;;;;5074757;28;20531;-70
2021/09/19 14:16:15;;;;;;;5.40;4.10;;;;;;;;;;5074785;28;20869;-70
2021/09/19 14:18:43;;;;;;;4.87;3.90;;;;;;;;;;5074728;28;20435;-70
2021/09/19 14:21:10;;;;;;;4.90;4.50;;;;;;;;;;5074193;28;20437;-70
2021/09/19 14:23:37;;;;;;;7.43;4.10;;;;;;;;;;5074642;28;20944;-70
2021/09/19 14:26:04;;;;;;;4.43;3.90;;;;;;;;;;5074521;28;20474;-70
2021/09/19 14:28:31;;;;;;;5.50;4.60;;;;;;;;;;5074262;28;20493;-70
2021/09/19 14:31:00;;;;;;;4.00;3.70;;;;;;;;;;5074533;28;20446;-70
2021/09/19 14:33:27;;;;;;;6.00;4.63;;;;;;;;;;5074068;28;20447;-70
2021/09/19 14:35:55;;;;;;;4.83;4.20;;;;;;;;;;5073969;28;20445;-70
2021/09/19 14:38:22;;;;;;;4.77;4.13;;;;;;;;;;5074265;28;20790;-70
2021/09/19 14:40:49;;;;;;;8.40;4.13;;;;;;;;;;5074272;28;20524;-71
2021/09/19 14:43:16;;;;;;;3.73;3.40;;;;;;;;;;5074189;28;20441;-70
2021/09/19 14:45:43;;;;;;;4.00;3.70;;;;;;;;;;5073819;28;20934;-70
2021/09/19 14:48:12;;;;;;;9.80;3.83;;;;;;;;;;5074315;28;20499;-70
2021/09/19 14:50:39;;;;;;;5.60;3.33;;;;;;;;;;5074314;28;20564;-70